createdAt,value
2022-12-22T00:00:35.981Z,4.99
2022-12-22T00:02:30.938Z,5.00
2022-12-22T00:04:21.262Z,5.16
2022-12-22T00:06:12.647Z,5.28
2022-12-22T00:08:02.857Z,5.22
2022-12-22T00:09:52.912Z,5.23
2022-12-22T00:11:43.052Z,5.13
2022-12-22T00:13:33.425Z,5.07
2022-12-22T00:15:24.386Z,4.95
2022-12-22T00:17:17.829Z,4.99
2022-12-22T00:19:07.964Z,4.87
2022-12-22T00:20:58.288Z,5.00
2022-12-22T00:22:49.747Z,5.15
2022-12-22T00:24:39.988Z,5.00
2022-12-22T00:26:30.207Z,5.03
2022-12-22T00:28:20.541Z,4.89
2022-12-22T00:30:10.620Z,4.85
2022-12-22T00:32:00.949Z,4.85
2022-12-22T00:33:51.270Z,4.85
2022-12-22T00:35:42.317Z,4.87
2022-12-22T00:37:32.673Z,4.76
2022-12-22T00:39:28.584Z,4.81
2022-12-22T00:41:18.749Z,4.78
2022-12-22T00:43:09.059Z,4.80
2022-12-22T00:44:59.191Z,5.07
2022-12-22T00:46:49.531Z,5.07
2022-12-22T00:48:40.693Z,5.08
2022-12-22T00:50:30.891Z,5.09
2022-12-22T00:52:21.255Z,4.99
2022-12-22T00:54:11.375Z,4.96
2022-12-22T00:56:03.044Z,4.97
2022-12-22T00:57:53.621Z,5.10
2022-12-22T00:59:43.634Z,5.30
2022-12-22T01:01:34.101Z,5.35
2022-12-22T01:03:24.571Z,5.34
2022-12-22T01:05:14.868Z,5.40
2022-12-22T01:07:05.217Z,5.26
2022-12-22T01:08:55.570Z,5.18
2022-12-22T01:10:45.984Z,5.27
2022-12-22T01:12:39.212Z,5.29
2022-12-22T01:14:29.788Z,5.31
2022-12-22T01:16:20.468Z,5.22
2022-12-22T01:18:10.665Z,5.55
2022-12-22T01:20:01.230Z,5.47
2022-12-22T01:21:51.284Z,5.72
2022-12-22T01:23:42.001Z,5.48
2022-12-22T01:25:32.946Z,5.68
2022-12-22T01:27:23.309Z,5.80
2022-12-22T01:29:15.033Z,5.68
2022-12-22T01:31:05.075Z,5.56
2022-12-22T01:32:55.244Z,5.52
2022-12-22T01:34:45.494Z,5.60
2022-12-22T01:36:35.647Z,5.59
2022-12-22T01:38:25.727Z,5.44
2022-12-22T01:40:15.690Z,5.57
2022-12-22T01:42:05.925Z,5.62
2022-12-22T01:43:56.003Z,6.30
2022-12-22T01:45:48.968Z,6.60
2022-12-22T01:47:50.467Z,6.64
2022-12-22T01:49:41.790Z,6.71
2022-12-22T01:51:34.353Z,6.74
2022-12-22T01:53:27.174Z,6.76
2022-12-22T01:55:20.548Z,6.71
2022-12-22T01:57:10.772Z,7.12
2022-12-22T01:59:04.405Z,7.13
2022-12-22T02:00:55.882Z,7.08
2022-12-22T02:02:46.506Z,7.16
2022-12-22T02:04:36.691Z,7.17
2022-12-22T02:06:32.450Z,7.18
2022-12-22T02:08:28.442Z,7.19
2022-12-22T02:10:21.482Z,7.04
2022-12-22T02:12:15.314Z,6.80
2022-12-22T02:14:12.564Z,6.84
2022-12-22T02:16:06.867Z,6.84
2022-12-22T02:17:59.987Z,6.96
2022-12-22T02:20:03.899Z,6.82
2022-12-22T02:22:03.998Z,6.93
2022-12-22T02:24:14.605Z,7.10
2022-12-22T02:26:08.550Z,7.01
2022-12-22T02:28:00.370Z,7.00
2022-12-22T02:29:52.233Z,6.95
2022-12-22T02:31:42.772Z,7.09
2022-12-22T02:33:33.208Z,7.00
2022-12-22T02:35:29.465Z,7.02
2022-12-22T02:37:22.979Z,7.00
2022-12-22T02:39:16.873Z,7.22
2022-12-22T02:41:09.147Z,7.05
2022-12-22T02:43:03.389Z,6.96
2022-12-22T02:44:59.905Z,7.17
2022-12-22T02:46:52.322Z,7.14
2022-12-22T02:48:45.366Z,7.24
2022-12-22T02:50:37.399Z,7.13
2022-12-22T02:52:30.859Z,7.33
2022-12-22T02:54:21.281Z,7.27
2022-12-22T02:56:16.535Z,7.19
2022-12-22T02:58:10.524Z,7.18
2022-12-22T03:00:00.998Z,7.23
2022-12-22T03:01:51.608Z,7.26
2022-12-22T03:03:42.131Z,7.11
2022-12-22T03:05:32.288Z,7.25
2022-12-22T03:07:22.583Z,7.20
2022-12-22T03:09:13.044Z,7.31
2022-12-22T03:11:03.334Z,7.29
2022-12-22T03:12:53.667Z,7.37
2022-12-22T03:14:45.343Z,7.42
2022-12-22T03:16:35.823Z,7.44
2022-12-22T03:18:27.140Z,7.31
2022-12-22T03:20:17.469Z,7.36
2022-12-22T03:22:07.858Z,7.34
2022-12-22T03:23:58.212Z,7.35
2022-12-22T03:25:48.637Z,7.38
2022-12-22T03:27:20.256Z,7.42
2022-12-22T03:28:51.920Z,7.33
2022-12-22T03:30:24.863Z,7.27
2022-12-22T03:31:56.599Z,7.33
2022-12-22T03:33:28.830Z,7.22
2022-12-22T03:35:00.491Z,7.37
2022-12-22T03:36:32.105Z,7.31
2022-12-22T03:38:03.895Z,7.37
2022-12-22T03:39:35.748Z,7.32
2022-12-22T03:41:07.355Z,7.27
2022-12-22T03:42:57.373Z,7.39
2022-12-22T03:44:52.293Z,7.24
2022-12-22T03:46:31.422Z,7.33
2022-12-22T03:48:03.438Z,7.28
2022-12-22T03:49:35.048Z,7.11
2022-12-22T03:51:06.682Z,7.04
2022-12-22T03:52:38.320Z,7.04
2022-12-22T03:54:10.387Z,7.02
2022-12-22T03:55:42.039Z,6.96
2022-12-22T03:57:13.627Z,6.90
2022-12-22T03:58:45.317Z,6.93
2022-12-22T04:00:17.307Z,6.89
2022-12-22T04:01:52.683Z,6.85
2022-12-22T04:03:24.572Z,6.94
2022-12-22T04:04:56.280Z,6.88
2022-12-22T04:06:27.908Z,6.74
2022-12-22T04:07:59.568Z,6.72
2022-12-22T04:09:33.401Z,6.75
2022-12-22T04:11:23.935Z,6.79
2022-12-22T04:12:55.582Z,6.76
2022-12-22T04:14:33.347Z,6.69
2022-12-22T04:16:06.547Z,6.58
2022-12-22T04:17:39.535Z,6.47
2022-12-22T04:19:11.145Z,6.44
2022-12-22T04:20:42.777Z,6.42
2022-12-22T04:22:14.558Z,6.42
2022-12-22T04:23:46.211Z,6.39
2022-12-22T04:25:17.950Z,6.27
2022-12-22T04:26:49.604Z,6.16
2022-12-22T04:28:21.239Z,6.16
2022-12-22T04:29:52.853Z,6.21
2022-12-22T04:31:24.539Z,6.27
2022-12-22T04:32:57.525Z,6.32
2022-12-22T04:34:29.172Z,6.29
2022-12-22T04:36:00.790Z,6.26
2022-12-22T04:37:32.400Z,6.18
2022-12-22T04:39:04.153Z,6.24
2022-12-22T04:40:35.770Z,6.34
2022-12-22T04:42:07.351Z,6.42
2022-12-22T04:43:38.963Z,6.59
2022-12-22T04:45:11.111Z,6.74
2022-12-22T04:46:42.852Z,6.80
2022-12-22T04:48:15.845Z,6.74
2022-12-22T04:49:47.458Z,6.85
2022-12-22T04:51:19.035Z,6.79
2022-12-22T04:52:50.650Z,6.87
2022-12-22T04:54:22.285Z,6.84
2022-12-22T04:55:55.263Z,6.93
2022-12-22T04:57:26.875Z,6.94
2022-12-22T04:58:58.479Z,6.96
2022-12-22T05:00:30.109Z,7.12
2022-12-22T05:02:01.824Z,7.00
2022-12-22T05:03:35.050Z,6.88
2022-12-22T05:05:08.028Z,6.85
2022-12-22T05:06:39.691Z,6.74
2022-12-22T05:08:11.331Z,6.81
2022-12-22T05:09:43.025Z,6.93
2022-12-22T05:11:14.672Z,6.95
2022-12-22T05:12:55.631Z,6.89
2022-12-22T05:14:27.308Z,6.81
2022-12-22T05:16:04.205Z,7.06
2022-12-22T05:17:35.888Z,7.09
2022-12-22T05:19:09.107Z,6.95
2022-12-22T05:20:40.867Z,7.23
2022-12-22T05:22:12.588Z,7.34
2022-12-22T05:23:44.372Z,7.33
2022-12-22T05:25:20.042Z,7.23
2022-12-22T05:26:51.776Z,7.49
2022-12-22T05:28:23.476Z,7.48
2022-12-22T05:29:55.161Z,7.37
2022-12-22T05:31:27.604Z,7.61
2022-12-22T05:32:59.388Z,7.68
2022-12-22T05:34:32.450Z,7.52
2022-12-22T05:36:04.591Z,7.62
2022-12-22T05:37:36.276Z,7.79
2022-12-22T05:39:08.177Z,7.92
2022-12-22T05:40:39.929Z,7.98
2022-12-22T05:42:11.588Z,7.82
2022-12-22T05:43:43.286Z,7.68
2022-12-22T05:45:16.111Z,7.57
2022-12-22T05:46:50.364Z,7.64
2022-12-22T05:48:28.290Z,7.82
2022-12-22T05:50:04.470Z,7.69
2022-12-22T05:51:36.181Z,7.73
2022-12-22T05:53:07.993Z,7.66
2022-12-22T05:54:39.614Z,7.91
2022-12-22T05:56:11.275Z,7.84
2022-12-22T05:57:43.528Z,7.78
2022-12-22T05:59:15.204Z,7.70
2022-12-22T06:00:46.854Z,7.56
2022-12-22T06:02:18.640Z,7.47
2022-12-22T06:03:53.379Z,7.55
2022-12-22T06:05:30.864Z,7.52
2022-12-22T06:07:02.547Z,7.60
2022-12-22T06:08:34.304Z,7.66
2022-12-22T06:10:11.891Z,7.67
2022-12-22T06:11:44.538Z,7.70
2022-12-22T06:13:16.221Z,7.71
2022-12-22T06:14:47.897Z,7.59
2022-12-22T06:16:19.911Z,7.71
2022-12-22T06:17:51.705Z,7.65
2022-12-22T06:19:23.393Z,7.66
2022-12-22T06:20:56.437Z,7.88
2022-12-22T06:22:28.162Z,7.81
2022-12-22T06:23:59.824Z,7.72
2022-12-22T06:25:31.615Z,7.63
2022-12-22T06:27:03.349Z,7.56
2022-12-22T06:28:35.280Z,7.45
2022-12-22T06:30:08.372Z,7.61
2022-12-22T06:31:40.191Z,7.47
2022-12-22T06:33:11.878Z,7.45
2022-12-22T06:34:43.544Z,7.30
2022-12-22T06:36:16.529Z,7.22
2022-12-22T06:37:48.165Z,7.21
2022-12-22T06:39:19.955Z,7.25
2022-12-22T06:40:51.642Z,7.18
2022-12-22T06:42:42.021Z,7.20
2022-12-22T06:44:13.628Z,7.02
2022-12-22T06:45:45.597Z,7.32
2022-12-22T06:47:17.399Z,7.24
2022-12-22T06:48:49.064Z,7.10
2022-12-22T06:50:20.724Z,6.99
2022-12-22T06:51:53.869Z,7.34
2022-12-22T06:53:25.611Z,7.33
2022-12-22T06:54:57.260Z,7.18
2022-12-22T06:56:28.908Z,7.49
2022-12-22T06:58:00.676Z,7.36
2022-12-22T06:59:32.350Z,7.40
2022-12-22T07:01:04.202Z,7.54
2022-12-22T07:02:36.098Z,7.55
2022-12-22T07:04:08.052Z,7.59
2022-12-22T07:05:39.693Z,7.62
2022-12-22T07:07:12.698Z,7.73
2022-12-22T07:08:44.415Z,7.78
2022-12-22T07:10:16.143Z,8.03
2022-12-22T07:11:47.850Z,7.89
2022-12-22T07:13:19.723Z,7.89
2022-12-22T07:14:51.517Z,7.93
2022-12-22T07:16:23.179Z,7.95
2022-12-22T07:17:54.939Z,8.06
2022-12-22T07:19:26.619Z,8.31
2022-12-22T07:20:58.266Z,8.30
2022-12-22T07:22:31.386Z,8.27
2022-12-22T07:24:03.052Z,8.36
2022-12-22T07:25:34.673Z,8.23
2022-12-22T07:27:06.308Z,8.18
2022-12-22T07:28:38.631Z,8.26
2022-12-22T07:30:11.463Z,8.32
2022-12-22T07:31:43.224Z,8.27
2022-12-22T07:33:14.920Z,8.35
2022-12-22T07:34:46.558Z,8.27
2022-12-22T07:36:19.298Z,8.17
2022-12-22T07:37:52.446Z,8.25
2022-12-22T07:39:24.121Z,8.20
2022-12-22T07:41:02.909Z,8.12
2022-12-22T07:42:45.397Z,8.17
2022-12-22T07:44:17.035Z,8.10
2022-12-22T07:45:48.674Z,8.20
2022-12-22T07:47:20.325Z,8.27
2022-12-22T07:49:10.966Z,8.31
2022-12-22T07:50:42.634Z,8.11
2022-12-22T07:52:14.271Z,8.25
2022-12-22T07:53:47.385Z,8.40
2022-12-22T07:55:19.110Z,8.29
2022-12-22T07:56:50.704Z,8.18
2022-12-22T07:58:22.335Z,8.28
2022-12-22T07:59:53.979Z,8.24
2022-12-22T08:01:25.871Z,8.27
2022-12-22T08:02:57.751Z,8.31
2022-12-22T08:04:29.668Z,8.38
2022-12-22T08:06:04.161Z,8.38
2022-12-22T08:07:35.776Z,8.34
2022-12-22T08:09:08.897Z,8.20
2022-12-22T08:10:40.521Z,8.32
2022-12-22T08:12:12.158Z,8.41
2022-12-22T08:13:43.873Z,8.38
2022-12-22T08:15:15.643Z,8.61
2022-12-22T08:16:47.336Z,8.69
2022-12-22T08:18:19.092Z,8.59
2022-12-22T08:19:50.763Z,8.56
2022-12-22T08:21:22.363Z,8.47
2022-12-22T08:22:53.972Z,8.28
2022-12-22T08:24:26.934Z,8.41
2022-12-22T08:26:00.248Z,8.57
2022-12-22T08:27:38.301Z,8.50
2022-12-22T08:29:12.225Z,8.39
2022-12-22T08:30:43.824Z,8.65
2022-12-22T08:32:15.428Z,8.42
2022-12-22T08:33:47.182Z,8.54
2022-12-22T08:35:19.003Z,8.29
2022-12-22T08:36:52.175Z,8.25
2022-12-22T08:38:23.759Z,8.36
2022-12-22T08:39:58.410Z,8.56
2022-12-22T08:41:48.835Z,8.58
2022-12-22T08:43:21.580Z,8.71
2022-12-22T08:44:53.414Z,8.85
2022-12-22T08:46:25.193Z,8.90
2022-12-22T08:47:56.920Z,8.94
2022-12-22T08:49:31.529Z,9.13
2022-12-22T08:51:03.231Z,9.03
2022-12-22T08:52:34.965Z,9.26
2022-12-22T08:54:07.112Z,9.53
2022-12-22T08:55:40.329Z,9.29
2022-12-22T08:57:11.995Z,9.22
2022-12-22T08:58:43.674Z,9.28
2022-12-22T09:00:15.981Z,9.42
2022-12-22T09:01:51.084Z,9.28
2022-12-22T09:03:23.168Z,9.38
2022-12-22T09:04:54.853Z,9.34
2022-12-22T09:06:27.594Z,9.04
2022-12-22T09:08:02.604Z,9.09
2022-12-22T09:09:34.662Z,9.22
2022-12-22T09:11:07.953Z,9.54
2022-12-22T09:12:39.735Z,9.37
2022-12-22T09:14:14.639Z,9.42
2022-12-22T09:15:46.363Z,9.31
2022-12-22T09:17:20.288Z,9.22
2022-12-22T09:18:52.409Z,9.31
2022-12-22T09:20:24.117Z,9.13
2022-12-22T09:21:56.089Z,9.15
2022-12-22T09:23:27.936Z,9.21
2022-12-22T09:24:59.728Z,9.35
2022-12-22T09:26:32.949Z,9.37
2022-12-22T09:28:07.153Z,9.29
2022-12-22T09:29:40.732Z,9.31
2022-12-22T09:31:12.591Z,9.23
2022-12-22T09:32:44.389Z,9.43
2022-12-22T09:34:18.489Z,9.56
2022-12-22T09:35:53.660Z,9.45
2022-12-22T09:37:25.557Z,9.37
2022-12-22T09:38:57.472Z,9.50
2022-12-22T09:40:29.321Z,9.64
2022-12-22T09:42:02.762Z,9.88
2022-12-22T09:43:34.495Z,9.83
2022-12-22T09:45:16.846Z,9.72
2022-12-22T09:46:49.123Z,9.72
2022-12-22T09:48:24.090Z,9.55
2022-12-22T09:49:56.377Z,9.56
2022-12-22T09:51:28.148Z,9.53
2022-12-22T09:53:00.871Z,9.59
2022-12-22T09:54:32.450Z,9.58
2022-12-22T09:56:04.595Z,9.73
2022-12-22T09:57:37.523Z,9.61
2022-12-22T09:59:10.796Z,9.54
2022-12-22T10:00:42.394Z,9.49
2022-12-22T10:02:23.153Z,9.34
2022-12-22T10:04:00.382Z,9.31
2022-12-22T10:05:38.442Z,9.20
2022-12-22T10:07:17.257Z,9.07
2022-12-22T10:08:48.841Z,9.14
2022-12-22T10:10:24.880Z,9.18
2022-12-22T10:11:57.394Z,9.09
2022-12-22T10:13:30.345Z,9.32
2022-12-22T10:16:51.859Z,9.23
2022-12-22T10:18:24.695Z,9.19
2022-12-22T10:20:07.843Z,9.26
2022-12-22T10:21:46.184Z,9.35
2022-12-22T10:23:19.397Z,9.52
2022-12-22T10:24:51.251Z,9.31
2022-12-22T10:26:28.739Z,9.71
2022-12-22T10:28:02.017Z,9.55
2022-12-22T10:29:35.334Z,9.53
2022-12-22T10:31:13.400Z,9.67
2022-12-22T10:32:48.470Z,9.74
2022-12-22T10:34:20.769Z,9.72
2022-12-22T10:35:53.030Z,9.75
2022-12-22T10:37:30.502Z,9.57
2022-12-22T10:39:03.262Z,9.66
2022-12-22T10:40:35.180Z,9.74
2022-12-22T10:42:07.991Z,9.95
2022-12-22T10:43:41.573Z,9.94
2022-12-22T10:45:19.264Z,9.74
2022-12-22T10:46:51.674Z,9.86
2022-12-22T10:48:26.753Z,9.68
2022-12-22T10:51:29.052Z,9.96
2022-12-22T10:53:03.247Z,9.94
2022-12-22T10:54:36.308Z,10.08
2022-12-22T10:56:08.708Z,10.06
2022-12-22T10:57:40.397Z,9.89
2022-12-22T10:59:16.252Z,10.13
2022-12-22T11:01:00.899Z,10.00
2022-12-22T11:02:34.077Z,9.95
2022-12-22T11:04:15.903Z,9.86
2022-12-22T11:05:57.705Z,10.04
2022-12-22T11:07:30.298Z,10.06
2022-12-22T11:09:31.412Z,10.08
2022-12-22T11:10:55.224Z,9.97
2022-12-22T11:12:31.520Z,10.08
2022-12-22T11:14:08.969Z,10.08
2022-12-22T11:15:44.748Z,10.03
2022-12-22T11:17:20.340Z,10.19
2022-12-22T11:19:00.444Z,10.13
2022-12-22T11:20:50.342Z,10.06
2022-12-22T11:22:29.040Z,10.10
2022-12-22T11:24:04.752Z,10.02
2022-12-22T11:25:41.373Z,10.01
2022-12-22T11:27:21.178Z,9.98
2022-12-22T11:29:09.261Z,10.13
2022-12-22T11:30:44.240Z,9.98
2022-12-22T11:32:26.773Z,10.08
2022-12-22T11:34:03.401Z,10.08
2022-12-22T11:35:44.244Z,9.94
2022-12-22T11:37:26.454Z,10.19
2022-12-22T11:39:00.631Z,10.12
2022-12-22T11:40:33.664Z,10.32
2022-12-22T11:42:17.116Z,10.46
2022-12-22T11:43:54.795Z,10.51
2022-12-22T11:45:49.374Z,10.60
2022-12-22T11:47:26.686Z,10.59
2022-12-22T11:49:20.174Z,10.59
2022-12-22T11:51:02.159Z,10.62
2022-12-22T11:52:48.134Z,10.68
2022-12-22T11:54:42.417Z,10.62
2022-12-22T11:56:20.197Z,10.51
2022-12-22T11:58:11.358Z,10.37
2022-12-22T11:59:47.308Z,10.28
2022-12-22T12:01:29.982Z,10.14
2022-12-22T12:03:37.297Z,10.29
2022-12-22T12:05:35.551Z,10.27
2022-12-22T12:07:25.459Z,10.11
2022-12-22T12:09:03.873Z,10.11
2022-12-22T12:10:39.192Z,10.14
2022-12-22T12:12:14.060Z,10.14
2022-12-22T12:13:50.102Z,10.01
2022-12-22T12:15:27.771Z,10.09
2022-12-22T12:17:00.852Z,10.27
2022-12-22T12:18:40.196Z,10.38
2022-12-22T12:20:29.030Z,10.45
2022-12-22T12:22:01.578Z,10.58
2022-12-22T12:23:57.983Z,10.62
2022-12-22T12:25:31.900Z,10.81
2022-12-22T12:27:06.344Z,10.74
2022-12-22T12:28:43.047Z,10.76
2022-12-22T12:32:10.453Z,10.67
2022-12-22T12:33:44.222Z,10.65
2022-12-22T12:35:28.529Z,10.59
2022-12-22T12:37:02.356Z,10.65
2022-12-22T12:39:09.891Z,10.75
2022-12-22T12:40:39.497Z,10.90
2022-12-22T12:42:18.047Z,10.94
2022-12-22T12:43:49.882Z,10.91
2022-12-22T12:45:35.554Z,10.94
2022-12-22T12:47:26.227Z,11.02
2022-12-22T12:49:00.883Z,11.06
2022-12-22T12:50:34.437Z,11.11
2022-12-22T12:52:06.128Z,11.09
2022-12-22T12:53:38.810Z,11.10
2022-12-22T12:55:32.698Z,11.22
2022-12-22T12:57:22.450Z,11.26
2022-12-22T12:58:55.418Z,11.20
2022-12-22T13:00:49.769Z,11.22
2022-12-22T13:02:40.113Z,11.16
2022-12-22T13:04:12.006Z,11.09
2022-12-22T13:05:52.129Z,11.13
2022-12-22T13:07:59.448Z,11.09
2022-12-22T13:12:10.719Z,11.12
2022-12-22T13:13:45.632Z,11.11
2022-12-22T13:15:32.680Z,11.00
2022-12-22T13:17:39.688Z,10.80
2022-12-22T13:19:16.162Z,10.67
2022-12-22T13:20:47.882Z,10.65
2022-12-22T13:22:20.972Z,10.64
2022-12-22T13:25:58.801Z,10.40
2022-12-22T13:27:30.605Z,10.36
2022-12-22T13:29:09.891Z,10.44
2022-12-22T13:30:52.684Z,10.54
2022-12-22T13:32:26.262Z,10.54
2022-12-22T13:34:05.304Z,10.45
2022-12-22T13:35:46.421Z,10.53
2022-12-22T13:37:21.756Z,10.54
2022-12-22T13:38:59.650Z,10.54
2022-12-22T13:40:32.084Z,10.58
2022-12-22T13:42:04.319Z,10.50
2022-12-22T13:43:36.424Z,10.53
2022-12-22T13:45:17.244Z,10.64
2022-12-22T13:46:48.982Z,10.59
2022-12-22T13:48:24.578Z,10.67
2022-12-22T13:50:08.893Z,10.73
2022-12-22T13:51:42.987Z,10.84
2022-12-22T13:53:49.565Z,10.77
2022-12-22T13:55:12.631Z,10.79
2022-12-22T13:56:46.566Z,10.90
2022-12-22T13:58:24.819Z,10.97
2022-12-22T13:59:56.876Z,10.92
2022-12-22T14:01:28.947Z,10.89
2022-12-22T14:03:01.175Z,10.89
2022-12-22T14:04:33.051Z,10.83
2022-12-22T14:06:18.946Z,10.87
2022-12-22T14:08:01.236Z,10.85
2022-12-22T14:09:34.418Z,10.76
2022-12-22T14:11:06.197Z,10.76
2022-12-22T14:12:39.983Z,10.67
2022-12-22T14:14:15.148Z,10.74
2022-12-22T14:15:46.918Z,10.62
2022-12-22T14:17:22.531Z,10.58
2022-12-22T14:18:54.337Z,10.49
2022-12-22T14:20:27.153Z,10.50
2022-12-22T14:22:02.670Z,10.48
2022-12-22T14:23:35.022Z,10.44
2022-12-22T14:25:09.450Z,10.44
2022-12-22T14:26:41.149Z,10.40
2022-12-22T14:28:15.463Z,10.33
2022-12-22T14:29:47.294Z,10.31
2022-12-22T14:31:19.734Z,10.24
2022-12-22T14:32:55.464Z,10.16
2022-12-22T14:34:28.623Z,10.13
2022-12-22T14:36:13.283Z,10.05
2022-12-22T14:37:45.116Z,9.97
2022-12-22T14:39:21.613Z,9.87
2022-12-22T14:40:58.127Z,9.87
2022-12-22T14:42:29.887Z,9.90
2022-12-22T14:44:01.687Z,9.86
2022-12-22T14:45:33.538Z,9.84
2022-12-22T14:47:17.327Z,9.82
2022-12-22T14:48:49.202Z,9.81
2022-12-22T14:50:22.048Z,9.80
2022-12-22T14:52:00.820Z,9.82
2022-12-22T14:53:37.548Z,9.98
2022-12-22T14:55:22.118Z,9.92
2022-12-22T14:56:58.098Z,9.88
2022-12-22T14:58:31.815Z,9.87
2022-12-22T15:00:05.733Z,9.79
2022-12-22T15:01:37.578Z,9.86
2022-12-22T15:03:30.460Z,9.78
2022-12-22T15:05:16.464Z,9.78
2022-12-22T15:06:48.273Z,9.81
2022-12-22T15:08:38.830Z,9.78
2022-12-22T15:10:15.973Z,9.90
2022-12-22T15:11:49.335Z,9.90
2022-12-22T15:13:23.117Z,9.84
2022-12-22T15:14:54.866Z,9.77
2022-12-22T15:16:28.354Z,9.83
2022-12-22T15:18:00.185Z,9.86
2022-12-22T15:19:34.565Z,9.84
2022-12-22T15:21:06.325Z,9.86
2022-12-22T15:22:40.553Z,9.83
2022-12-22T15:24:12.898Z,9.88
2022-12-22T15:25:44.858Z,9.79
2022-12-22T15:27:16.560Z,9.78
2022-12-22T15:28:50.029Z,9.75
2022-12-22T15:30:28.087Z,9.70
2022-12-22T15:32:02.239Z,9.79
2022-12-22T15:33:34.070Z,9.88
2022-12-22T15:35:14.860Z,9.92
2022-12-22T15:36:46.573Z,9.97
2022-12-22T15:38:19.341Z,9.80
2022-12-22T15:39:51.067Z,9.83
2022-12-22T15:41:22.850Z,9.78
2022-12-22T15:42:54.704Z,9.77
2022-12-22T15:44:30.991Z,9.75
2022-12-22T15:46:05.951Z,9.72
2022-12-22T15:47:37.815Z,9.75
2022-12-22T15:49:20.977Z,9.72
2022-12-22T15:50:52.993Z,9.75
2022-12-22T15:52:25.032Z,9.67
2022-12-22T15:53:57.055Z,9.67
2022-12-22T15:55:28.977Z,9.72
2022-12-22T15:57:02.518Z,9.82
2022-12-22T15:58:35.650Z,9.75
2022-12-22T16:00:10.808Z,9.69
2022-12-22T16:01:42.631Z,9.67
2022-12-22T16:03:14.568Z,9.71
2022-12-22T16:04:46.429Z,9.69
2022-12-22T16:06:19.033Z,9.81
2022-12-22T16:07:52.695Z,9.84
2022-12-22T16:09:27.391Z,9.84
2022-12-22T16:10:59.199Z,9.71
2022-12-22T16:12:31.089Z,9.70
2022-12-22T16:14:02.898Z,9.65
2022-12-22T16:15:38.394Z,9.74
2022-12-22T16:17:14.083Z,9.73
2022-12-22T16:18:45.878Z,9.77
2022-12-22T16:20:17.644Z,9.98
2022-12-22T16:21:51.706Z,9.97
2022-12-22T16:23:24.492Z,9.78
2022-12-22T16:24:56.273Z,9.75
2022-12-22T16:26:28.025Z,9.81
2022-12-22T16:28:00.026Z,9.77
2022-12-22T16:29:31.952Z,9.76
2022-12-22T16:31:07.154Z,9.78
2022-12-22T16:32:40.102Z,9.75
2022-12-22T16:34:11.918Z,9.76
2022-12-22T16:35:43.806Z,9.80
2022-12-22T16:37:15.670Z,9.76
2022-12-22T16:38:47.933Z,9.65
2022-12-22T16:40:20.075Z,9.75
2022-12-22T16:41:59.967Z,9.71
2022-12-22T16:43:51.022Z,9.82
2022-12-22T16:45:26.331Z,9.62
2022-12-22T16:47:00.311Z,9.76
2022-12-22T16:48:34.089Z,9.73
2022-12-22T16:50:10.090Z,9.79
2022-12-22T16:51:45.016Z,9.82
2022-12-22T16:53:16.929Z,9.98
2022-12-22T16:54:52.590Z,9.94
2022-12-22T16:56:31.139Z,9.84
2022-12-22T16:58:12.743Z,9.83
2022-12-22T16:59:45.168Z,9.80
2022-12-22T17:01:22.674Z,9.89
2022-12-22T17:02:57.557Z,9.90
2022-12-22T17:04:30.579Z,9.76
2022-12-22T17:06:07.084Z,9.75
2022-12-22T17:07:38.878Z,9.79
2022-12-22T17:09:16.120Z,9.80
2022-12-22T17:10:51.259Z,9.92
2022-12-22T17:12:24.522Z,9.86
2022-12-22T17:14:02.196Z,9.85
2022-12-22T17:15:36.459Z,9.87
2022-12-22T17:17:12.349Z,10.03
2022-12-22T17:18:45.750Z,9.97
2022-12-22T17:20:18.507Z,9.92
2022-12-22T17:21:55.253Z,10.04
2022-12-22T17:23:33.620Z,9.91
2022-12-22T17:25:11.475Z,9.91
2022-12-22T17:26:47.466Z,10.11
2022-12-22T17:28:19.381Z,10.07
2022-12-22T17:29:51.223Z,9.98
2022-12-22T17:31:23.035Z,9.96
2022-12-22T17:32:56.161Z,9.90
2022-12-22T17:34:29.593Z,9.85
2022-12-22T17:36:01.399Z,9.96
2022-12-22T17:37:35.529Z,9.97
2022-12-22T17:39:12.250Z,9.88
2022-12-22T17:40:44.209Z,9.94
2022-12-22T17:42:22.326Z,9.95
2022-12-22T17:44:29.470Z,10.02
2022-12-22T17:46:01.304Z,9.92
2022-12-22T17:47:42.456Z,9.98
2022-12-22T17:49:14.850Z,9.98
2022-12-22T17:50:52.397Z,9.92
2022-12-22T17:52:24.313Z,10.02
2022-12-22T17:53:56.987Z,9.98
2022-12-22T17:56:06.599Z,9.85
2022-12-22T17:57:22.935Z,9.85
2022-12-22T17:58:54.873Z,9.92
2022-12-22T18:00:27.731Z,9.89
2022-12-22T18:02:00.583Z,9.81
2022-12-22T18:03:33.877Z,9.71
2022-12-22T18:05:06.387Z,9.73
2022-12-22T18:06:43.305Z,9.74
2022-12-22T18:08:17.643Z,9.72
2022-12-22T18:09:49.448Z,9.73
2022-12-22T18:11:21.355Z,9.90
2022-12-22T18:12:53.219Z,9.84
2022-12-22T18:14:25.127Z,9.73
2022-12-22T18:16:02.660Z,9.67
2022-12-22T18:17:36.229Z,9.76
2022-12-22T18:19:08.290Z,9.75
2022-12-22T18:20:40.232Z,9.70
2022-12-22T18:22:15.791Z,9.73
2022-12-22T18:23:50.343Z,9.70
2022-12-22T18:25:23.818Z,9.61
2022-12-22T18:26:55.804Z,9.72
2022-12-22T18:28:27.705Z,9.68
2022-12-22T18:30:00.209Z,9.64
2022-12-22T18:31:32.054Z,9.68
2022-12-22T18:33:04.033Z,9.71
2022-12-22T18:34:36.386Z,9.62
2022-12-22T18:36:14.650Z,9.63
2022-12-22T18:37:47.835Z,9.57
2022-12-22T18:39:21.688Z,9.62
2022-12-22T18:40:59.606Z,9.53
2022-12-22T18:42:35.185Z,9.66
2022-12-22T18:44:09.342Z,9.62
2022-12-22T18:45:41.154Z,9.73
2022-12-22T18:47:12.968Z,9.63
2022-12-22T18:48:44.909Z,9.65
2022-12-22T18:50:18.177Z,9.54
2022-12-22T18:51:50.084Z,9.48
2022-12-22T18:53:26.130Z,9.48
2022-12-22T18:54:57.978Z,9.51
2022-12-22T18:56:29.759Z,9.50
2022-12-22T18:58:01.605Z,9.49
2022-12-22T18:59:33.332Z,9.48
2022-12-22T19:01:05.568Z,9.43
2022-12-22T19:02:38.975Z,9.44
2022-12-22T19:04:10.847Z,9.46
2022-12-22T19:05:44.728Z,9.42
2022-12-22T19:07:17.327Z,9.39
2022-12-22T19:08:50.608Z,9.48
2022-12-22T19:10:24.385Z,9.46
2022-12-22T19:11:56.218Z,9.39
2022-12-22T19:13:30.179Z,9.42
2022-12-22T19:15:03.913Z,9.33
2022-12-22T19:16:35.877Z,9.29
2022-12-22T19:18:10.681Z,9.28
2022-12-22T19:19:42.514Z,9.29
2022-12-22T19:21:14.484Z,9.26
2022-12-22T19:22:46.287Z,9.21
2022-12-22T19:24:20.003Z,9.20
2022-12-22T19:25:52.609Z,9.18
2022-12-22T19:27:25.770Z,9.16
2022-12-22T19:29:01.294Z,9.14
2022-12-22T19:30:33.236Z,9.14
2022-12-22T19:32:05.065Z,9.10
2022-12-22T19:33:40.590Z,9.04
2022-12-22T19:35:16.417Z,9.08
2022-12-22T19:36:48.250Z,9.05
2022-12-22T19:38:21.743Z,9.04
2022-12-22T19:39:54.969Z,9.02
2022-12-22T19:41:39.130Z,8.99
2022-12-22T19:43:10.923Z,8.92
2022-12-22T19:44:44.862Z,8.94
2022-12-22T19:46:16.747Z,8.95
2022-12-22T19:47:48.522Z,9.07
2022-12-22T19:49:21.388Z,9.08
2022-12-22T19:50:53.416Z,9.04
2022-12-22T19:52:27.866Z,9.06
2022-12-22T19:54:01.026Z,9.10
2022-12-22T19:55:34.276Z,9.03
2022-12-22T19:57:06.698Z,9.02
2022-12-22T19:58:39.517Z,8.96
2022-12-22T20:00:16.230Z,8.99
2022-12-22T20:01:48.460Z,8.90
2022-12-22T20:03:24.378Z,8.83
2022-12-22T20:04:56.422Z,8.76
2022-12-22T20:06:28.194Z,8.76
2022-12-22T20:08:00.747Z,8.76
2022-12-22T20:09:35.024Z,8.78
2022-12-22T20:11:12.861Z,8.80
2022-12-22T20:12:45.692Z,8.82
2022-12-22T20:14:18.024Z,8.81
2022-12-22T20:15:49.850Z,8.85
2022-12-22T20:17:21.732Z,8.80
2022-12-22T20:18:53.594Z,8.78
2022-12-22T20:20:26.623Z,8.72
2022-12-22T20:21:58.385Z,8.80
2022-12-22T20:23:31.395Z,8.74
2022-12-22T20:25:03.186Z,8.69
2022-12-22T20:26:36.379Z,8.68
2022-12-22T20:28:12.942Z,8.67
2022-12-22T20:29:44.711Z,8.65
2022-12-22T20:31:16.617Z,8.59
2022-12-22T20:32:48.611Z,8.63
2022-12-22T20:34:20.496Z,8.63
2022-12-22T20:35:52.859Z,8.62
2022-12-22T20:37:25.349Z,8.58
2022-12-22T20:38:57.515Z,8.55
2022-12-22T20:40:30.320Z,8.47
2022-12-22T20:42:03.780Z,8.46
2022-12-22T20:43:35.912Z,8.47
2022-12-22T20:45:07.800Z,8.56
2022-12-22T20:46:39.598Z,8.61
2022-12-22T20:48:17.881Z,8.59
2022-12-22T20:49:49.732Z,8.55
2022-12-22T20:51:22.257Z,8.53
2022-12-22T20:52:54.552Z,8.54
2022-12-22T20:54:26.371Z,8.56
2022-12-22T20:55:58.412Z,8.55
2022-12-22T20:57:39.263Z,8.56
2022-12-22T20:59:13.628Z,8.49
2022-12-22T21:00:45.593Z,8.47
2022-12-22T21:02:21.962Z,8.43
2022-12-22T21:03:54.072Z,8.42
2022-12-22T21:05:26.027Z,8.45
2022-12-22T21:07:00.333Z,8.39
2022-12-22T21:08:32.235Z,8.38
2022-12-22T21:10:04.604Z,8.39
2022-12-22T21:11:36.637Z,8.37
2022-12-22T21:13:11.054Z,8.38
2022-12-22T21:14:42.976Z,8.31
2022-12-22T21:16:19.379Z,8.26
2022-12-22T21:17:58.790Z,8.31
2022-12-22T21:19:30.880Z,8.25
2022-12-22T21:21:02.735Z,8.26
2022-12-22T21:22:34.502Z,8.25
2022-12-22T21:24:06.905Z,8.24
2022-12-22T21:25:43.147Z,8.25
2022-12-22T21:27:19.347Z,8.24
2022-12-22T21:28:52.443Z,8.20
2022-12-22T21:30:25.935Z,8.19
2022-12-22T21:31:57.767Z,8.15
2022-12-22T21:33:29.708Z,8.15
2022-12-22T21:35:07.781Z,8.08